createdAt,value
2022-08-20T00:01:12.523Z,7.2
2022-08-20T00:03:44.620Z,6.92
2022-08-20T00:06:12.580Z,6.71
2022-08-20T00:16:12.665Z,7.29
2022-08-20T00:18:42.712Z,6.4
2022-08-20T00:21:12.720Z,5.94
2022-08-20T00:23:42.755Z,11.25
2022-08-20T00:26:12.757Z,9.22
2022-08-20T00:28:42.807Z,7.39
2022-08-20T00:33:42.856Z,7.44
2022-08-20T00:36:12.856Z,8.17
2022-08-20T00:38:42.897Z,7.46
2022-08-20T00:43:42.941Z,8.55
2022-08-20T00:46:12.959Z,7.41
2022-08-20T00:51:13.019Z,6.54
2022-08-20T00:53:43.088Z,6.16
2022-08-20T00:56:13.051Z,6.05
2022-08-20T01:01:13.109Z,6.25
2022-08-20T01:03:43.120Z,6.17
2022-08-20T01:06:13.141Z,7.64
2022-08-20T01:08:43.188Z,6.31
2022-08-20T01:11:13.219Z,7.85
2022-08-20T01:16:13.254Z,6.74
2022-08-20T01:18:43.261Z,6.14
2022-08-20T01:21:13.288Z,7.76
2022-08-20T01:26:13.351Z,7.3
2022-08-20T01:28:43.359Z,8.55
2022-08-20T01:31:13.411Z,7.95
2022-08-20T01:33:44.168Z,6.61
2022-08-20T01:36:13.434Z,6.41
2022-08-20T01:41:13.484Z,6.85
2022-08-20T01:43:43.502Z,5.43
2022-08-20T01:51:13.566Z,5.43
2022-08-20T01:53:43.609Z,5.57
2022-08-20T01:56:13.641Z,5.42
2022-08-20T01:58:43.649Z,4.87
2022-08-20T02:01:13.736Z,5.01
2022-08-20T02:03:44.787Z,12.38
2022-08-20T02:06:13.729Z,9.82
2022-08-20T02:11:13.780Z,7.02
2022-08-20T02:13:43.800Z,8.29
2022-08-20T02:18:43.828Z,5.75
2022-08-20T02:21:13.891Z,5.43
2022-08-20T02:23:43.888Z,5.37
2022-08-20T02:31:13.970Z,6.07
2022-08-20T02:33:43.971Z,7.01
2022-08-20T02:36:14.012Z,6.54
2022-08-20T02:41:14.059Z,8.47
2022-08-20T02:43:44.083Z,10.48
2022-08-20T02:48:44.135Z,7.31
2022-08-20T02:53:44.177Z,5.56
2022-08-20T02:56:14.182Z,4.74
2022-08-20T02:58:44.233Z,5.42
2022-08-20T03:01:14.260Z,4.66
2022-08-20T03:03:44.266Z,4.53
2022-08-20T03:06:14.294Z,7.06
2022-08-20T03:08:44.318Z,6.04
2022-08-20T03:11:14.345Z,6.08
2022-08-20T03:13:44.360Z,6.22
2022-08-20T03:16:14.388Z,6.9
2022-08-20T03:18:44.408Z,5.93
2022-08-20T03:21:14.721Z,5.85
2022-08-20T03:23:44.468Z,5.68
2022-08-20T03:31:14.789Z,9.57
2022-08-20T03:33:48.886Z,6.75
2022-08-20T03:36:14.583Z,6.3
2022-08-20T03:38:44.603Z,6.98
2022-08-20T03:41:14.623Z,6.57
2022-08-20T03:43:44.671Z,6.11
2022-08-20T03:46:23.610Z,6.34
2022-08-20T03:48:44.862Z,6.34
2022-08-20T03:51:14.699Z,7.56
2022-08-20T03:53:44.734Z,6.61
2022-08-20T03:56:14.769Z,8.99
2022-08-20T03:58:44.791Z,7.3
2022-08-20T04:01:45.647Z,6.43
2022-08-20T04:03:44.828Z,7.07
2022-08-20T04:06:14.861Z,5.15
2022-08-20T04:11:14.915Z,3.67
2022-08-20T04:16:15.266Z,4.4
2022-08-20T04:19:01.617Z,4.41
2022-08-20T04:21:15.045Z,4.63
2022-08-20T04:23:45.022Z,7.58
2022-08-20T04:26:15.047Z,8.9
2022-08-20T04:28:45.063Z,7.77
2022-08-20T04:31:15.077Z,6.14
2022-08-20T04:33:45.101Z,5.96
2022-08-20T04:41:22.884Z,6.32
2022-08-20T04:43:45.203Z,5.23
2022-08-20T04:46:15.217Z,4.98
2022-08-20T04:48:49.194Z,6.12
2022-08-20T04:53:52.117Z,8.29
2022-08-20T04:56:15.311Z,5.55
2022-08-20T05:01:15.442Z,5.01
2022-08-20T05:03:45.382Z,5
2022-08-20T05:06:15.401Z,5.43
2022-08-20T05:08:45.483Z,5.68
2022-08-20T05:11:34.559Z,5.13
2022-08-20T05:13:45.489Z,4.76
2022-08-20T05:16:15.504Z,7.11
2022-08-20T05:18:45.539Z,7.05
2022-08-20T05:21:15.691Z,7.11
2022-08-20T05:23:45.584Z,6.11
2022-08-20T05:28:52.796Z,6.27
2022-08-20T05:31:15.664Z,6.91
2022-08-20T05:33:45.671Z,6.94
2022-08-20T05:36:15.689Z,6.57
2022-08-20T05:38:49.693Z,5.61
2022-08-20T05:41:29.436Z,7.05
2022-08-20T05:43:45.775Z,7.27
2022-08-20T05:46:15.976Z,6.26
2022-08-20T05:51:15.830Z,10.12
2022-08-20T05:56:15.879Z,7.21
2022-08-20T06:01:15.994Z,5.42
2022-08-20T06:03:45.958Z,5.51
2022-08-20T06:06:18.300Z,5.09
2022-08-20T06:08:46.020Z,5.04
2022-08-20T06:11:16.016Z,5.45
2022-08-20T06:13:46.062Z,6.27
2022-08-20T06:16:16.073Z,6.19
2022-08-20T06:18:46.117Z,7.65
2022-08-20T06:21:16.144Z,6.43
2022-08-20T06:23:58.042Z,7.69
2022-08-20T06:28:46.196Z,6.88
2022-08-20T06:31:16.248Z,5.28
2022-08-20T06:33:46.243Z,5.45
2022-08-20T06:36:18.004Z,6.74
2022-08-20T06:41:16.308Z,7.71
2022-08-20T06:43:46.319Z,5.35
2022-08-20T06:46:16.382Z,5.66
2022-08-20T06:48:46.368Z,4.46
2022-08-20T06:53:46.430Z,5.89
2022-08-20T06:58:46.478Z,4.18
2022-08-20T07:01:16.570Z,3.74
2022-08-20T07:03:55.779Z,3.83
2022-08-20T07:06:16.532Z,5.06
2022-08-20T07:08:46.567Z,5.32
2022-08-20T07:11:16.594Z,4.81
2022-08-20T07:13:46.636Z,4.52
2022-08-20T07:16:16.639Z,3.78
2022-08-20T07:18:46.676Z,3.73
2022-08-20T07:21:16.668Z,3.3
2022-08-20T07:23:46.721Z,4.13
2022-08-20T07:26:16.749Z,3.8
2022-08-20T07:28:46.741Z,3.4
2022-08-20T07:31:16.770Z,4.65
2022-08-20T07:33:46.790Z,3.79
2022-08-20T07:38:46.856Z,4.56
2022-08-20T07:41:16.855Z,6.98
2022-08-20T07:46:16.911Z,3.93
2022-08-20T07:48:47.113Z,9.08
2022-08-20T07:51:16.973Z,10.63
2022-08-20T07:53:46.983Z,7.79
2022-08-20T07:56:17.022Z,5.35
2022-08-20T07:58:47.044Z,4.6
2022-08-20T08:01:17.114Z,3.16
2022-08-20T08:03:50.098Z,6.4
2022-08-20T08:06:19.675Z,9.21
2022-08-20T08:08:47.127Z,6.28
2022-08-20T08:11:17.144Z,4.3
2022-08-20T08:16:17.201Z,10.26
2022-08-20T08:18:47.220Z,6.76
2022-08-20T08:21:17.272Z,5.16
2022-08-20T08:23:47.263Z,3.68
2022-08-20T08:28:47.311Z,6.43
2022-08-20T08:33:47.391Z,3.79
2022-08-20T08:38:47.417Z,4.38
2022-08-20T08:43:47.468Z,2.93
2022-08-20T08:48:47.513Z,4.16
2022-08-20T08:51:17.527Z,3.26
2022-08-20T08:53:47.558Z,2.64
2022-08-20T08:56:17.571Z,2.99
2022-08-20T08:58:47.613Z,2.65
2022-08-20T09:01:54.211Z,4.13
2022-08-20T09:03:47.647Z,4.87
2022-08-20T09:06:17.669Z,4.23
2022-08-20T09:08:47.689Z,2.91
2022-08-20T09:11:17.723Z,2.71
2022-08-20T09:13:47.758Z,3.87
2022-08-20T09:23:47.832Z,4.2
2022-08-20T09:26:17.869Z,4.8
2022-08-20T09:28:52.119Z,3.38
2022-08-20T09:33:47.950Z,5.14
2022-08-20T09:36:31.719Z,4.9
2022-08-20T09:38:48.002Z,4.34
2022-08-20T09:41:17.999Z,3.26
2022-08-20T09:43:48.033Z,3.84
2022-08-20T09:46:18.056Z,3.64
2022-08-20T09:51:18.097Z,3.86
2022-08-20T09:56:18.136Z,8.53
2022-08-20T09:58:48.173Z,7
2022-08-20T10:06:18.236Z,4.25
2022-08-20T10:08:48.262Z,6.6
2022-08-20T10:11:18.290Z,4.9
2022-08-20T10:13:48.303Z,3.95
2022-08-20T10:18:48.339Z,4.64
2022-08-20T10:21:18.358Z,5.93
2022-08-20T10:23:48.392Z,6.04
2022-08-20T10:26:18.431Z,4.37
2022-08-20T10:36:18.501Z,3.62
2022-08-20T10:38:48.631Z,8.54
2022-08-20T10:43:48.576Z,4.23
2022-08-20T10:48:48.633Z,3.03
2022-08-20T10:53:48.698Z,5.54
2022-08-20T10:56:18.704Z,3.8
2022-08-20T10:58:48.711Z,4.24
2022-08-20T11:03:48.768Z,3.27
2022-08-20T11:06:18.793Z,4.02
2022-08-20T11:08:48.829Z,5.61
2022-08-20T11:13:48.888Z,2.66
2022-08-20T11:16:18.886Z,3.41
2022-08-20T11:18:48.920Z,4.14
2022-08-20T11:26:18.966Z,4.02
2022-08-20T11:31:19.020Z,3.14
2022-08-20T11:33:49.060Z,3.46
2022-08-20T11:36:19.076Z,4.32
2022-08-20T11:46:19.175Z,4.59
2022-08-20T11:48:49.223Z,3.1
2022-08-20T11:51:19.224Z,2.56
2022-08-20T11:53:49.248Z,3.41
2022-08-20T11:56:19.249Z,2.91
2022-08-20T11:58:49.269Z,2.66
2022-08-20T12:03:49.329Z,2.45
2022-08-20T12:06:19.348Z,6.08
2022-08-20T12:08:49.389Z,6.65
2022-08-20T12:11:19.400Z,5.62
2022-08-20T12:16:19.455Z,3.8
2022-08-20T12:18:49.482Z,4.54
2022-08-20T12:23:49.536Z,4.33
2022-08-20T12:26:19.537Z,3.28
2022-08-20T12:28:49.583Z,3.5
2022-08-20T12:31:19.591Z,3.12
2022-08-20T12:33:49.611Z,2.95
2022-08-20T12:36:19.650Z,2.7
2022-08-20T12:38:49.665Z,3.21
2022-08-20T12:43:49.776Z,3.73
2022-08-20T12:46:20.131Z,5.29
2022-08-20T12:48:49.765Z,3.5
2022-08-20T12:53:49.812Z,2.91
2022-08-20T12:56:19.818Z,4.19
2022-08-20T12:58:49.849Z,4.06
2022-08-20T13:01:19.941Z,3.51
2022-08-20T13:06:19.921Z,2.46
2022-08-20T13:13:52.048Z,4.61
2022-08-20T13:16:20.007Z,3.72
2022-08-20T13:21:23.421Z,2.92
2022-08-20T13:23:50.090Z,3.06
2022-08-20T13:26:20.104Z,3.96
2022-08-20T13:41:20.400Z,3.24
2022-08-20T13:43:50.300Z,3.83
2022-08-20T13:46:20.300Z,4.59
2022-08-20T13:48:50.314Z,5.55
2022-08-20T13:53:50.375Z,5.05
2022-08-20T13:56:20.397Z,3.58
2022-08-20T13:58:50.418Z,2.98
2022-08-20T14:03:50.460Z,5.38
2022-08-20T14:06:20.471Z,4.97
2022-08-20T14:08:50.502Z,3.64
2022-08-20T14:11:20.522Z,4.19
2022-08-20T14:18:52.869Z,2.71
2022-08-20T14:21:20.613Z,3.39
2022-08-20T14:28:50.699Z,3.92
2022-08-20T14:31:20.715Z,3.17
2022-08-20T14:33:50.742Z,6.03
2022-08-20T14:36:20.764Z,6.26
2022-08-20T14:38:50.782Z,4.99
2022-08-20T14:41:20.807Z,3.83
2022-08-20T14:46:20.884Z,4.63
2022-08-20T14:56:20.947Z,4.09
2022-08-20T14:58:50.984Z,4.81
2022-08-20T15:01:21.061Z,3.64
2022-08-20T15:06:21.913Z,3.45
2022-08-20T15:08:51.074Z,5.38
2022-08-20T15:11:21.105Z,4.43
2022-08-20T15:13:51.133Z,6.36
2022-08-20T15:16:21.150Z,5.04
2022-08-20T15:18:51.177Z,5.75
2022-08-20T15:21:21.983Z,4.36
2022-08-20T15:23:51.226Z,5.24
2022-08-20T15:26:21.251Z,7.99
2022-08-20T15:28:51.285Z,5.47
2022-08-20T15:31:21.312Z,5.94
2022-08-20T15:33:51.322Z,4.74
2022-08-20T15:36:21.344Z,5.34
2022-08-20T15:41:21.384Z,4.87
2022-08-20T15:43:51.410Z,4.35
2022-08-20T15:46:21.442Z,3.38
2022-08-20T15:48:51.469Z,2.76
2022-08-20T15:51:21.475Z,4.46
2022-08-20T15:53:51.521Z,4.25
2022-08-20T15:56:21.547Z,4.39
2022-08-20T15:58:51.553Z,5.25
2022-08-20T16:01:25.185Z,5.14
2022-08-20T16:03:51.625Z,4.03
2022-08-20T16:06:21.625Z,4.22
2022-08-20T16:08:51.678Z,3.64
2022-08-20T16:11:21.705Z,6.05
2022-08-20T16:16:21.732Z,20.35
2022-08-20T16:18:51.746Z,12.77
2022-08-20T16:21:21.792Z,9.74
2022-08-20T16:23:51.802Z,9.38
2022-08-20T16:26:21.835Z,8.22
2022-08-20T16:28:51.843Z,5.95
2022-08-20T16:31:21.930Z,5.02
2022-08-20T16:33:51.896Z,7.68
2022-08-20T16:36:21.936Z,5.31
2022-08-20T16:38:51.943Z,6.94
2022-08-20T16:41:21.986Z,6.6
2022-08-20T16:43:52.009Z,5.2
2022-08-20T16:46:22.031Z,7.1
2022-08-20T16:48:52.066Z,4.95
2022-08-20T16:51:22.077Z,5.35
2022-08-20T16:56:22.117Z,4.87
2022-08-20T16:58:52.140Z,5.81
2022-08-20T17:01:22.258Z,4.09
2022-08-20T17:03:52.212Z,3.89
2022-08-20T17:08:52.247Z,4.18
2022-08-20T17:11:22.279Z,5.62
2022-08-20T17:13:52.301Z,5.94
2022-08-20T17:16:22.311Z,5.84
2022-08-20T17:18:52.340Z,5.05
2022-08-20T17:21:22.379Z,5.22
2022-08-20T17:23:56.384Z,4.3
2022-08-20T17:26:22.427Z,4.97
2022-08-20T17:28:52.437Z,5.49
2022-08-20T17:31:22.475Z,6.34
2022-08-20T17:33:52.504Z,5.22
2022-08-20T17:36:22.517Z,3.9
2022-08-20T17:38:52.536Z,3.79
2022-08-20T17:41:22.569Z,3.4
2022-08-20T17:43:52.597Z,3.97
2022-08-20T17:48:52.638Z,4.79
2022-08-20T17:51:22.675Z,4.22
2022-08-20T17:53:52.687Z,4.87
2022-08-20T17:56:22.717Z,4.74
2022-08-20T17:58:54.872Z,5.05
2022-08-20T18:01:22.853Z,4.32
2022-08-20T18:03:52.808Z,5.42
2022-08-20T18:06:25.323Z,4.23
2022-08-20T18:08:52.843Z,3.09
2022-08-20T18:11:22.883Z,3.3
2022-08-20T18:13:52.890Z,2.91
2022-08-20T18:16:22.907Z,3.95
2022-08-20T18:18:57.090Z,3.97
2022-08-20T18:21:22.938Z,6.43
2022-08-20T18:23:52.985Z,4.97
2022-08-20T18:26:23.005Z,4.97
2022-08-20T18:28:53.034Z,4.25
2022-08-20T18:31:23.111Z,3.94
2022-08-20T18:33:53.101Z,8.14
2022-08-20T18:36:23.132Z,5.82
2022-08-20T18:38:53.128Z,5.36
2022-08-20T18:41:23.131Z,8.37
2022-08-20T18:43:53.173Z,5.2
2022-08-20T18:46:23.540Z,5.14
2022-08-20T18:48:53.219Z,4.02
2022-08-20T18:53:53.274Z,3.83
2022-08-20T18:56:23.298Z,2.98
2022-08-20T18:58:53.301Z,3.87
2022-08-20T19:01:23.438Z,3.8
2022-08-20T19:03:53.365Z,3.67
2022-08-20T19:06:23.396Z,2.78
2022-08-20T19:08:53.417Z,2.85
2022-08-20T19:11:23.420Z,3.01
2022-08-20T19:16:23.489Z,3.3
2022-08-20T19:18:53.500Z,3.83
2022-08-20T19:21:23.544Z,3.25
2022-08-20T19:23:53.544Z,2.68
2022-08-20T19:26:25.235Z,4.43
2022-08-20T19:28:53.590Z,4.05
2022-08-20T19:36:24.270Z,4.24
2022-08-20T19:38:53.684Z,3.57
2022-08-20T19:41:30.961Z,3.68
2022-08-20T19:46:23.777Z,5.79
2022-08-20T19:51:23.813Z,2.97
2022-08-20T19:53:53.827Z,3.26
2022-08-20T19:56:23.859Z,4.57
2022-08-20T19:58:53.893Z,7.2
2022-08-20T20:01:23.925Z,5.59
2022-08-20T20:03:53.947Z,5.36
2022-08-20T20:06:23.964Z,4.81
2022-08-20T20:08:53.985Z,6.53
2022-08-20T20:11:24.001Z,3.97
2022-08-20T20:16:24.056Z,3.06
2022-08-20T20:19:15.555Z,4.26
2022-08-20T20:21:24.110Z,4.58
2022-08-20T20:23:54.118Z,4.4
2022-08-20T20:26:24.153Z,4.66
2022-08-20T20:36:24.228Z,5.5
2022-08-20T20:38:54.255Z,5.14
2022-08-20T20:41:24.299Z,4.93
2022-08-20T20:43:54.316Z,5.3
2022-08-20T20:46:24.344Z,5.43
2022-08-20T20:48:54.356Z,3.95
2022-08-20T20:51:24.386Z,3.9
2022-08-20T20:58:55.820Z,3.93
2022-08-20T21:08:54.563Z,4.8
2022-08-20T21:11:24.579Z,7.26
2022-08-20T21:16:24.615Z,4.68
2022-08-20T21:18:54.652Z,5.31
2022-08-20T21:21:24.674Z,3.87
2022-08-20T21:23:54.677Z,3.86
2022-08-20T21:26:24.710Z,5.06
2022-08-20T21:28:54.726Z,4.15
2022-08-20T21:31:24.766Z,4.99
2022-08-20T21:33:54.788Z,4.58
2022-08-20T21:36:24.807Z,4.32
2022-08-20T21:38:54.830Z,6.25
2022-08-20T21:41:29.466Z,5.21
2022-08-20T21:43:54.885Z,5.72
2022-08-20T21:51:24.953Z,4.86
2022-08-20T21:56:25.004Z,5.99
2022-08-20T22:01:25.093Z,4.05
2022-08-20T22:03:55.064Z,3.75
2022-08-20T22:06:25.067Z,4.57
2022-08-20T22:08:55.103Z,4.3
2022-08-20T22:11:25.121Z,9.02
2022-08-20T22:16:25.174Z,8.56
2022-08-20T22:18:55.188Z,9.64
2022-08-20T22:21:25.225Z,10.07
2022-08-20T22:23:55.254Z,7.51
2022-08-20T22:28:55.285Z,5.75
2022-08-20T22:31:25.309Z,6.56
2022-08-20T22:41:25.423Z,5.32
2022-08-20T22:43:55.942Z,8.02
2022-08-20T22:46:26.847Z,7
2022-08-20T22:53:55.681Z,5.93
2022-08-20T22:58:55.571Z,4.77
2022-08-20T23:01:25.746Z,4.5
2022-08-20T23:06:25.659Z,3.98
2022-08-20T23:08:55.673Z,4.28
2022-08-20T23:11:26.404Z,4.76
2022-08-20T23:18:55.764Z,3.94
2022-08-20T23:23:55.813Z,4.45
2022-08-20T23:26:25.853Z,5.53
2022-08-20T23:28:55.868Z,5.13
2022-08-20T23:31:25.876Z,3.66
2022-08-20T23:36:25.937Z,4.23
2022-08-20T23:38:55.955Z,4.5
2022-08-20T23:41:25.977Z,4.33
2022-08-20T23:43:56.021Z,3.01
2022-08-20T23:51:26.091Z,3.17
2022-08-20T23:53:56.102Z,3.62
2022-08-20T23:58:56.149Z,6.72
